<?xml version="1.0" encoding="UTF-8" standalone="no" ?>
<gpx xmlns="http://www.topografix.com/GPX/1/1" xmlns:xsi="http://www.w3.org/2001/XMLSchema-instance" xsi:schemaLocation="http://www.topografix.com/GPX/1/1 http://www.topografix.com/GPX/1/1/gpx.xsd" version="1.1" creator="VisuGPX - https://www.visugpx.com">
  <metadata>
    <name>15/06/2013</name>
    <desc><![CDATA[entorse cheville droite]]></desc>
  </metadata>
  <trk>
    <name><![CDATA[Tracé 15 juin 2013 18:58:20]]></name>
    <trkseg>
      <trkpt lat="43.60604" lon="2.79809">
        <ele>795</ele>
        <time>2013-06-15T16:58:20Z</time>
      </trkpt>
      <trkpt lat="43.60604" lon="2.79809">
        <ele>795</ele>
        <time>2013-06-15T16:58:36Z</time>
      </trkpt>
      <trkpt lat="43.60631" lon="2.79854">
        <ele>763</ele>
        <time>2013-06-15T16:58:56Z</time>
      </trkpt>
      <trkpt lat="43.60635" lon="2.79876">
        <ele>767</ele>
        <time>2013-06-15T16:59:01Z</time>
      </trkpt>
      <trkpt lat="43.60639" lon="2.79893">
        <ele>771</ele>
        <time>2013-06-15T16:59:05Z</time>
      </trkpt>
      <trkpt lat="43.60635" lon="2.79912">
        <ele>773</ele>
        <time>2013-06-15T16:59:09Z</time>
      </trkpt>
      <trkpt lat="43.60627" lon="2.79932">
        <ele>769</ele>
        <time>2013-06-15T16:59:14Z</time>
      </trkpt>
      <trkpt lat="43.60619" lon="2.79951">
        <ele>769</ele>
        <time>2013-06-15T16:59:19Z</time>
      </trkpt>
      <trkpt lat="43.60615" lon="2.7997">
        <ele>768</ele>
        <time>2013-06-15T16:59:23Z</time>
      </trkpt>
      <trkpt lat="43.60607" lon="2.79989">
        <ele>767</ele>
        <time>2013-06-15T16:59:28Z</time>
      </trkpt>
      <trkpt lat="43.60601" lon="2.80005">
        <ele>767</ele>
        <time>2013-06-15T16:59:33Z</time>
      </trkpt>
      <trkpt lat="43.6059" lon="2.80015">
        <ele>767</ele>
        <time>2013-06-15T16:59:37Z</time>
      </trkpt>
      <trkpt lat="43.60574" lon="2.80026">
        <ele>769</ele>
        <time>2013-06-15T16:59:42Z</time>
      </trkpt>
      <trkpt lat="43.60562" lon="2.80031">
        <ele>770</ele>
        <time>2013-06-15T16:59:46Z</time>
      </trkpt>
      <trkpt lat="43.60553" lon="2.80038">
        <ele>771</ele>
        <time>2013-06-15T16:59:50Z</time>
      </trkpt>
      <trkpt lat="43.6054" lon="2.80044">
        <ele>772</ele>
        <time>2013-06-15T16:59:54Z</time>
      </trkpt>
      <trkpt lat="43.60528" lon="2.8005">
        <ele>771</ele>
        <time>2013-06-15T16:59:59Z</time>
      </trkpt>
      <trkpt lat="43.60514" lon="2.80056">
        <ele>771</ele>
        <time>2013-06-15T17:00:04Z</time>
      </trkpt>
      <trkpt lat="43.60503" lon="2.80062">
        <ele>771</ele>
        <time>2013-06-15T17:00:08Z</time>
      </trkpt>
      <trkpt lat="43.60488" lon="2.80069">
        <ele>771</ele>
        <time>2013-06-15T17:00:13Z</time>
      </trkpt>
      <trkpt lat="43.60481" lon="2.80074">
        <ele>772</ele>
        <time>2013-06-15T17:00:17Z</time>
      </trkpt>
      <trkpt lat="43.60473" lon="2.80081">
        <ele>772</ele>
        <time>2013-06-15T17:00:21Z</time>
      </trkpt>
      <trkpt lat="43.60463" lon="2.80085">
        <ele>773</ele>
        <time>2013-06-15T17:00:25Z</time>
      </trkpt>
      <trkpt lat="43.60455" lon="2.8009">
        <ele>773</ele>
        <time>2013-06-15T17:00:29Z</time>
      </trkpt>
      <trkpt lat="43.60446" lon="2.80092">
        <ele>773</ele>
        <time>2013-06-15T17:00:33Z</time>
      </trkpt>
      <trkpt lat="43.60435" lon="2.80093">
        <ele>773</ele>
        <time>2013-06-15T17:00:38Z</time>
      </trkpt>
      <trkpt lat="43.60425" lon="2.80093">
        <ele>773</ele>
        <time>2013-06-15T17:00:42Z</time>
      </trkpt>
      <trkpt lat="43.60415" lon="2.80087">
        <ele>773</ele>
        <time>2013-06-15T17:00:46Z</time>
      </trkpt>
      <trkpt lat="43.60407" lon="2.8008">
        <ele>773</ele>
        <time>2013-06-15T17:00:50Z</time>
      </trkpt>
      <trkpt lat="43.60403" lon="2.80071">
        <ele>774</ele>
        <time>2013-06-15T17:00:54Z</time>
      </trkpt>
      <trkpt lat="43.60402" lon="2.80056">
        <ele>774</ele>
        <time>2013-06-15T17:00:59Z</time>
      </trkpt>
      <trkpt lat="43.60406" lon="2.8004">
        <ele>773</ele>
        <time>2013-06-15T17:01:04Z</time>
      </trkpt>
      <trkpt lat="43.60409" lon="2.80026">
        <ele>773</ele>
        <time>2013-06-15T17:01:08Z</time>
      </trkpt>
      <trkpt lat="43.60409" lon="2.80012">
        <ele>772</ele>
        <time>2013-06-15T17:01:13Z</time>
      </trkpt>
      <trkpt lat="43.60406" lon="2.8">
        <ele>772</ele>
        <time>2013-06-15T17:01:17Z</time>
      </trkpt>
      <trkpt lat="43.60402" lon="2.79986">
        <ele>772</ele>
        <time>2013-06-15T17:01:22Z</time>
      </trkpt>
      <trkpt lat="43.60397" lon="2.79974">
        <ele>771</ele>
        <time>2013-06-15T17:01:27Z</time>
      </trkpt>
      <trkpt lat="43.60393" lon="2.79962">
        <ele>771</ele>
        <time>2013-06-15T17:01:31Z</time>
      </trkpt>
      <trkpt lat="43.60394" lon="2.7995">
        <ele>771</ele>
        <time>2013-06-15T17:01:35Z</time>
      </trkpt>
      <trkpt lat="43.60391" lon="2.79935">
        <ele>770</ele>
        <time>2013-06-15T17:01:39Z</time>
      </trkpt>
      <trkpt lat="43.60386" lon="2.79915">
        <ele>769</ele>
        <time>2013-06-15T17:01:44Z</time>
      </trkpt>
      <trkpt lat="43.60382" lon="2.79894">
        <ele>768</ele>
        <time>2013-06-15T17:01:49Z</time>
      </trkpt>
      <trkpt lat="43.60378" lon="2.7988">
        <ele>768</ele>
        <time>2013-06-15T17:01:53Z</time>
      </trkpt>
      <trkpt lat="43.60372" lon="2.79869">
        <ele>767</ele>
        <time>2013-06-15T17:01:57Z</time>
      </trkpt>
      <trkpt lat="43.60367" lon="2.79857">
        <ele>768</ele>
        <time>2013-06-15T17:02:01Z</time>
      </trkpt>
      <trkpt lat="43.6036" lon="2.79845">
        <ele>769</ele>
        <time>2013-06-15T17:02:05Z</time>
      </trkpt>
      <trkpt lat="43.60353" lon="2.79835">
        <ele>769</ele>
        <time>2013-06-15T17:02:09Z</time>
      </trkpt>
      <trkpt lat="43.60344" lon="2.79823">
        <ele>770</ele>
        <time>2013-06-15T17:02:13Z</time>
      </trkpt>
      <trkpt lat="43.60337" lon="2.7981">
        <ele>771</ele>
        <time>2013-06-15T17:02:17Z</time>
      </trkpt>
      <trkpt lat="43.60331" lon="2.79794">
        <ele>773</ele>
        <time>2013-06-15T17:02:21Z</time>
      </trkpt>
      <trkpt lat="43.60322" lon="2.79779">
        <ele>776</ele>
        <time>2013-06-15T17:02:26Z</time>
      </trkpt>
      <trkpt lat="43.60313" lon="2.79768">
        <ele>778</ele>
        <time>2013-06-15T17:02:31Z</time>
      </trkpt>
      <trkpt lat="43.60306" lon="2.79758">
        <ele>779</ele>
        <time>2013-06-15T17:02:35Z</time>
      </trkpt>
      <trkpt lat="43.60298" lon="2.79748">
        <ele>781</ele>
        <time>2013-06-15T17:02:39Z</time>
      </trkpt>
      <trkpt lat="43.60289" lon="2.79739">
        <ele>782</ele>
        <time>2013-06-15T17:02:44Z</time>
      </trkpt>
      <trkpt lat="43.60281" lon="2.79732">
        <ele>783</ele>
        <time>2013-06-15T17:02:48Z</time>
      </trkpt>
      <trkpt lat="43.60272" lon="2.79723">
        <ele>784</ele>
        <time>2013-06-15T17:02:53Z</time>
      </trkpt>
      <trkpt lat="43.60266" lon="2.79716">
        <ele>785</ele>
        <time>2013-06-15T17:02:57Z</time>
      </trkpt>
      <trkpt lat="43.6026" lon="2.79708">
        <ele>786</ele>
        <time>2013-06-15T17:03:01Z</time>
      </trkpt>
      <trkpt lat="43.60255" lon="2.79698">
        <ele>786</ele>
        <time>2013-06-15T17:03:05Z</time>
      </trkpt>
      <trkpt lat="43.60247" lon="2.79691">
        <ele>787</ele>
        <time>2013-06-15T17:03:09Z</time>
      </trkpt>
      <trkpt lat="43.60239" lon="2.79685">
        <ele>788</ele>
        <time>2013-06-15T17:03:13Z</time>
      </trkpt>
      <trkpt lat="43.60232" lon="2.79678">
        <ele>789</ele>
        <time>2013-06-15T17:03:17Z</time>
      </trkpt>
      <trkpt lat="43.60223" lon="2.79672">
        <ele>790</ele>
        <time>2013-06-15T17:03:21Z</time>
      </trkpt>
      <trkpt lat="43.60211" lon="2.79662">
        <ele>791</ele>
        <time>2013-06-15T17:03:26Z</time>
      </trkpt>
      <trkpt lat="43.60202" lon="2.79658">
        <ele>792</ele>
        <time>2013-06-15T17:03:30Z</time>
      </trkpt>
      <trkpt lat="43.60194" lon="2.7965">
        <ele>793</ele>
        <time>2013-06-15T17:03:34Z</time>
      </trkpt>
      <trkpt lat="43.60186" lon="2.79637">
        <ele>792</ele>
        <time>2013-06-15T17:03:39Z</time>
      </trkpt>
      <trkpt lat="43.60178" lon="2.79624">
        <ele>792</ele>
        <time>2013-06-15T17:03:43Z</time>
      </trkpt>
      <trkpt lat="43.6017" lon="2.79612">
        <ele>793</ele>
        <time>2013-06-15T17:03:47Z</time>
      </trkpt>
      <trkpt lat="43.60161" lon="2.79601">
        <ele>792</ele>
        <time>2013-06-15T17:03:51Z</time>
      </trkpt>
      <trkpt lat="43.60151" lon="2.79591">
        <ele>792</ele>
        <time>2013-06-15T17:03:55Z</time>
      </trkpt>
      <trkpt lat="43.60141" lon="2.79584">
        <ele>791</ele>
        <time>2013-06-15T17:03:59Z</time>
      </trkpt>
      <trkpt lat="43.60131" lon="2.79578">
        <ele>791</ele>
        <time>2013-06-15T17:04:03Z</time>
      </trkpt>
      <trkpt lat="43.60119" lon="2.79573">
        <ele>790</ele>
        <time>2013-06-15T17:04:08Z</time>
      </trkpt>
      <trkpt lat="43.60103" lon="2.79572">
        <ele>789</ele>
        <time>2013-06-15T17:04:13Z</time>
      </trkpt>
      <trkpt lat="43.60088" lon="2.79569">
        <ele>789</ele>
        <time>2013-06-15T17:04:18Z</time>
      </trkpt>
      <trkpt lat="43.60078" lon="2.79564">
        <ele>788</ele>
        <time>2013-06-15T17:04:22Z</time>
      </trkpt>
      <trkpt lat="43.60068" lon="2.79554">
        <ele>788</ele>
        <time>2013-06-15T17:04:27Z</time>
      </trkpt>
      <trkpt lat="43.60058" lon="2.79547">
        <ele>788</ele>
        <time>2013-06-15T17:04:32Z</time>
      </trkpt>
      <trkpt lat="43.60051" lon="2.79546">
        <ele>787</ele>
        <time>2013-06-15T17:04:36Z</time>
      </trkpt>
      <trkpt lat="43.60042" lon="2.79546">
        <ele>788</ele>
        <time>2013-06-15T17:04:41Z</time>
      </trkpt>
      <trkpt lat="43.60032" lon="2.79548">
        <ele>788</ele>
        <time>2013-06-15T17:04:45Z</time>
      </trkpt>
      <trkpt lat="43.60023" lon="2.79545">
        <ele>788</ele>
        <time>2013-06-15T17:04:49Z</time>
      </trkpt>
      <trkpt lat="43.60014" lon="2.79543">
        <ele>788</ele>
        <time>2013-06-15T17:04:53Z</time>
      </trkpt>
      <trkpt lat="43.60001" lon="2.79536">
        <ele>789</ele>
        <time>2013-06-15T17:04:58Z</time>
      </trkpt>
      <trkpt lat="43.59994" lon="2.79531">
        <ele>789</ele>
        <time>2013-06-15T17:05:02Z</time>
      </trkpt>
      <trkpt lat="43.59987" lon="2.79528">
        <ele>789</ele>
        <time>2013-06-15T17:05:06Z</time>
      </trkpt>
      <trkpt lat="43.59978" lon="2.79521">
        <ele>789</ele>
        <time>2013-06-15T17:05:11Z</time>
      </trkpt>
      <trkpt lat="43.59971" lon="2.79516">
        <ele>789</ele>
        <time>2013-06-15T17:05:15Z</time>
      </trkpt>
      <trkpt lat="43.59964" lon="2.79515">
        <ele>789</ele>
        <time>2013-06-15T17:05:22Z</time>
      </trkpt>
      <trkpt lat="43.59957" lon="2.7951">
        <ele>790</ele>
        <time>2013-06-15T17:05:28Z</time>
      </trkpt>
      <trkpt lat="43.5995" lon="2.79502">
        <ele>790</ele>
        <time>2013-06-15T17:05:34Z</time>
      </trkpt>
      <trkpt lat="43.59942" lon="2.79499">
        <ele>790</ele>
        <time>2013-06-15T17:05:41Z</time>
      </trkpt>
      <trkpt lat="43.59934" lon="2.79497">
        <ele>789</ele>
        <time>2013-06-15T17:05:48Z</time>
      </trkpt>
      <trkpt lat="43.59925" lon="2.79496">
        <ele>790</ele>
        <time>2013-06-15T17:05:54Z</time>
      </trkpt>
      <trkpt lat="43.59917" lon="2.79496">
        <ele>791</ele>
        <time>2013-06-15T17:06:00Z</time>
      </trkpt>
      <trkpt lat="43.59909" lon="2.79496">
        <ele>791</ele>
        <time>2013-06-15T17:06:05Z</time>
      </trkpt>
      <trkpt lat="43.59902" lon="2.79497">
        <ele>792</ele>
        <time>2013-06-15T17:06:10Z</time>
      </trkpt>
      <trkpt lat="43.59894" lon="2.79504">
        <ele>793</ele>
        <time>2013-06-15T17:06:15Z</time>
      </trkpt>
      <trkpt lat="43.59884" lon="2.79515">
        <ele>792</ele>
        <time>2013-06-15T17:06:20Z</time>
      </trkpt>
      <trkpt lat="43.59874" lon="2.79524">
        <ele>790</ele>
        <time>2013-06-15T17:06:25Z</time>
      </trkpt>
      <trkpt lat="43.59867" lon="2.79529">
        <ele>790</ele>
        <time>2013-06-15T17:06:29Z</time>
      </trkpt>
      <trkpt lat="43.59859" lon="2.79531">
        <ele>790</ele>
        <time>2013-06-15T17:06:34Z</time>
      </trkpt>
      <trkpt lat="43.59851" lon="2.79532">
        <ele>790</ele>
        <time>2013-06-15T17:06:38Z</time>
      </trkpt>
      <trkpt lat="43.59844" lon="2.79532">
        <ele>790</ele>
        <time>2013-06-15T17:06:42Z</time>
      </trkpt>
      <trkpt lat="43.59836" lon="2.79531">
        <ele>790</ele>
        <time>2013-06-15T17:06:47Z</time>
      </trkpt>
      <trkpt lat="43.59829" lon="2.79534">
        <ele>789</ele>
        <time>2013-06-15T17:06:52Z</time>
      </trkpt>
      <trkpt lat="43.59821" lon="2.7954">
        <ele>788</ele>
        <time>2013-06-15T17:06:57Z</time>
      </trkpt>
      <trkpt lat="43.59816" lon="2.79546">
        <ele>787</ele>
        <time>2013-06-15T17:07:01Z</time>
      </trkpt>
      <trkpt lat="43.59804" lon="2.79555">
        <ele>784</ele>
        <time>2013-06-15T17:07:06Z</time>
      </trkpt>
      <trkpt lat="43.59795" lon="2.7956">
        <ele>784</ele>
        <time>2013-06-15T17:07:10Z</time>
      </trkpt>
      <trkpt lat="43.59789" lon="2.79568">
        <ele>784</ele>
        <time>2013-06-15T17:07:14Z</time>
      </trkpt>
      <trkpt lat="43.59786" lon="2.79577">
        <ele>784</ele>
        <time>2013-06-15T17:07:18Z</time>
      </trkpt>
      <trkpt lat="43.59784" lon="2.79592">
        <ele>783</ele>
        <time>2013-06-15T17:07:23Z</time>
      </trkpt>
      <trkpt lat="43.59782" lon="2.79606">
        <ele>784</ele>
        <time>2013-06-15T17:07:27Z</time>
      </trkpt>
      <trkpt lat="43.5978" lon="2.79624">
        <ele>785</ele>
        <time>2013-06-15T17:07:32Z</time>
      </trkpt>
      <trkpt lat="43.5978" lon="2.79637">
        <ele>786</ele>
        <time>2013-06-15T17:07:36Z</time>
      </trkpt>
      <trkpt lat="43.59779" lon="2.79654">
        <ele>786</ele>
        <time>2013-06-15T17:07:41Z</time>
      </trkpt>
      <trkpt lat="43.59777" lon="2.79668">
        <ele>786</ele>
        <time>2013-06-15T17:07:45Z</time>
      </trkpt>
      <trkpt lat="43.59776" lon="2.79682">
        <ele>786</ele>
        <time>2013-06-15T17:07:49Z</time>
      </trkpt>
      <trkpt lat="43.59776" lon="2.79696">
        <ele>787</ele>
        <time>2013-06-15T17:07:53Z</time>
      </trkpt>
      <trkpt lat="43.59774" lon="2.7971">
        <ele>787</ele>
        <time>2013-06-15T17:07:57Z</time>
      </trkpt>
      <trkpt lat="43.59773" lon="2.79726">
        <ele>787</ele>
        <time>2013-06-15T17:08:01Z</time>
      </trkpt>
      <trkpt lat="43.59773" lon="2.79742">
        <ele>788</ele>
        <time>2013-06-15T17:08:05Z</time>
      </trkpt>
      <trkpt lat="43.59773" lon="2.79762">
        <ele>788</ele>
        <time>2013-06-15T17:08:10Z</time>
      </trkpt>
      <trkpt lat="43.59773" lon="2.79779">
        <ele>789</ele>
        <time>2013-06-15T17:08:14Z</time>
      </trkpt>
      <trkpt lat="43.59775" lon="2.798">
        <ele>789</ele>
        <time>2013-06-15T17:08:19Z</time>
      </trkpt>
      <trkpt lat="43.59776" lon="2.79821">
        <ele>789</ele>
        <time>2013-06-15T17:08:24Z</time>
      </trkpt>
      <trkpt lat="43.59777" lon="2.79836">
        <ele>790</ele>
        <time>2013-06-15T17:08:28Z</time>
      </trkpt>
      <trkpt lat="43.59777" lon="2.79855">
        <ele>792</ele>
        <time>2013-06-15T17:08:33Z</time>
      </trkpt>
      <trkpt lat="43.59777" lon="2.79871">
        <ele>792</ele>
        <time>2013-06-15T17:08:37Z</time>
      </trkpt>
      <trkpt lat="43.59775" lon="2.7989">
        <ele>792</ele>
        <time>2013-06-15T17:08:42Z</time>
      </trkpt>
      <trkpt lat="43.59775" lon="2.79906">
        <ele>792</ele>
        <time>2013-06-15T17:08:46Z</time>
      </trkpt>
      <trkpt lat="43.59777" lon="2.79924">
        <ele>792</ele>
        <time>2013-06-15T17:08:50Z</time>
      </trkpt>
      <trkpt lat="43.59778" lon="2.79939">
        <ele>793</ele>
        <time>2013-06-15T17:08:54Z</time>
      </trkpt>
      <trkpt lat="43.59779" lon="2.79955">
        <ele>793</ele>
        <time>2013-06-15T17:08:58Z</time>
      </trkpt>
      <trkpt lat="43.5978" lon="2.7997">
        <ele>793</ele>
        <time>2013-06-15T17:09:02Z</time>
      </trkpt>
      <trkpt lat="43.59783" lon="2.79989">
        <ele>794</ele>
        <time>2013-06-15T17:09:07Z</time>
      </trkpt>
      <trkpt lat="43.59787" lon="2.80007">
        <ele>794</ele>
        <time>2013-06-15T17:09:12Z</time>
      </trkpt>
      <trkpt lat="43.5979" lon="2.80023">
        <ele>795</ele>
        <time>2013-06-15T17:09:17Z</time>
      </trkpt>
      <trkpt lat="43.59792" lon="2.80041">
        <ele>796</ele>
        <time>2013-06-15T17:09:22Z</time>
      </trkpt>
      <trkpt lat="43.59794" lon="2.80055">
        <ele>797</ele>
        <time>2013-06-15T17:09:26Z</time>
      </trkpt>
      <trkpt lat="43.59796" lon="2.80068">
        <ele>796</ele>
        <time>2013-06-15T17:09:30Z</time>
      </trkpt>
      <trkpt lat="43.59797" lon="2.80087">
        <ele>796</ele>
        <time>2013-06-15T17:09:35Z</time>
      </trkpt>
      <trkpt lat="43.59797" lon="2.80101">
        <ele>797</ele>
        <time>2013-06-15T17:09:39Z</time>
      </trkpt>
      <trkpt lat="43.59795" lon="2.80114">
        <ele>797</ele>
        <time>2013-06-15T17:09:43Z</time>
      </trkpt>
      <trkpt lat="43.59794" lon="2.80129">
        <ele>796</ele>
        <time>2013-06-15T17:09:48Z</time>
      </trkpt>
      <trkpt lat="43.59797" lon="2.80141">
        <ele>796</ele>
        <time>2013-06-15T17:09:52Z</time>
      </trkpt>
      <trkpt lat="43.59805" lon="2.80149">
        <ele>796</ele>
        <time>2013-06-15T17:09:57Z</time>
      </trkpt>
      <trkpt lat="43.59813" lon="2.80148">
        <ele>796</ele>
        <time>2013-06-15T17:10:03Z</time>
      </trkpt>
      <trkpt lat="43.5982" lon="2.80146">
        <ele>796</ele>
        <time>2013-06-15T17:10:07Z</time>
      </trkpt>
      <trkpt lat="43.5983" lon="2.80143">
        <ele>796</ele>
        <time>2013-06-15T17:10:11Z</time>
      </trkpt>
      <trkpt lat="43.59841" lon="2.8014">
        <ele>796</ele>
        <time>2013-06-15T17:10:15Z</time>
      </trkpt>
      <trkpt lat="43.59851" lon="2.80135">
        <ele>796</ele>
        <time>2013-06-15T17:10:19Z</time>
      </trkpt>
      <trkpt lat="43.59862" lon="2.8013">
        <ele>796</ele>
        <time>2013-06-15T17:10:23Z</time>
      </trkpt>
      <trkpt lat="43.59872" lon="2.80123">
        <ele>796</ele>
        <time>2013-06-15T17:10:27Z</time>
      </trkpt>
      <trkpt lat="43.59885" lon="2.80113">
        <ele>797</ele>
        <time>2013-06-15T17:10:32Z</time>
      </trkpt>
      <trkpt lat="43.59898" lon="2.80102">
        <ele>798</ele>
        <time>2013-06-15T17:10:37Z</time>
      </trkpt>
      <trkpt lat="43.5991" lon="2.8009">
        <ele>799</ele>
        <time>2013-06-15T17:10:42Z</time>
      </trkpt>
      <trkpt lat="43.59915" lon="2.80075">
        <ele>800</ele>
        <time>2013-06-15T17:10:46Z</time>
      </trkpt>
      <trkpt lat="43.59921" lon="2.80062">
        <ele>801</ele>
        <time>2013-06-15T17:10:50Z</time>
      </trkpt>
      <trkpt lat="43.59931" lon="2.8005">
        <ele>801</ele>
        <time>2013-06-15T17:10:55Z</time>
      </trkpt>
      <trkpt lat="43.59943" lon="2.8004">
        <ele>801</ele>
        <time>2013-06-15T17:11:00Z</time>
      </trkpt>
      <trkpt lat="43.59954" lon="2.80032">
        <ele>801</ele>
        <time>2013-06-15T17:11:04Z</time>
      </trkpt>
      <trkpt lat="43.59967" lon="2.80022">
        <ele>801</ele>
        <time>2013-06-15T17:11:09Z</time>
      </trkpt>
      <trkpt lat="43.59976" lon="2.80013">
        <ele>801</ele>
        <time>2013-06-15T17:11:13Z</time>
      </trkpt>
      <trkpt lat="43.59987" lon="2.80003">
        <ele>802</ele>
        <time>2013-06-15T17:11:18Z</time>
      </trkpt>
      <trkpt lat="43.59996" lon="2.80003">
        <ele>803</ele>
        <time>2013-06-15T17:11:22Z</time>
      </trkpt>
      <trkpt lat="43.60003" lon="2.80007">
        <ele>803</ele>
        <time>2013-06-15T17:11:26Z</time>
      </trkpt>
      <trkpt lat="43.60014" lon="2.8001">
        <ele>803</ele>
        <time>2013-06-15T17:11:31Z</time>
      </trkpt>
      <trkpt lat="43.60022" lon="2.80005">
        <ele>803</ele>
        <time>2013-06-15T17:11:36Z</time>
      </trkpt>
      <trkpt lat="43.60027" lon="2.79996">
        <ele>803</ele>
        <time>2013-06-15T17:11:41Z</time>
      </trkpt>
      <trkpt lat="43.60037" lon="2.79988">
        <ele>802</ele>
        <time>2013-06-15T17:11:46Z</time>
      </trkpt>
      <trkpt lat="43.60044" lon="2.79982">
        <ele>801</ele>
        <time>2013-06-15T17:11:50Z</time>
      </trkpt>
      <trkpt lat="43.60049" lon="2.79975">
        <ele>800</ele>
        <time>2013-06-15T17:11:54Z</time>
      </trkpt>
      <trkpt lat="43.60061" lon="2.79966">
        <ele>799</ele>
        <time>2013-06-15T17:11:59Z</time>
      </trkpt>
      <trkpt lat="43.60078" lon="2.79952">
        <ele>798</ele>
        <time>2013-06-15T17:12:03Z</time>
      </trkpt>
      <trkpt lat="43.60088" lon="2.79953">
        <ele>797</ele>
        <time>2013-06-15T17:12:07Z</time>
      </trkpt>
      <trkpt lat="43.60097" lon="2.79958">
        <ele>797</ele>
        <time>2013-06-15T17:12:13Z</time>
      </trkpt>
      <trkpt lat="43.60106" lon="2.79957">
        <ele>796</ele>
        <time>2013-06-15T17:12:17Z</time>
      </trkpt>
      <trkpt lat="43.60118" lon="2.79956">
        <ele>795</ele>
        <time>2013-06-15T17:12:22Z</time>
      </trkpt>
      <trkpt lat="43.60127" lon="2.79958">
        <ele>795</ele>
        <time>2013-06-15T17:12:31Z</time>
      </trkpt>
      <trkpt lat="43.60132" lon="2.79949">
        <ele>795</ele>
        <time>2013-06-15T17:12:38Z</time>
      </trkpt>
      <trkpt lat="43.6014" lon="2.79946">
        <ele>794</ele>
        <time>2013-06-15T17:12:42Z</time>
      </trkpt>
      <trkpt lat="43.60147" lon="2.79943">
        <ele>793</ele>
        <time>2013-06-15T17:12:46Z</time>
      </trkpt>
      <trkpt lat="43.60155" lon="2.79939">
        <ele>791</ele>
        <time>2013-06-15T17:12:50Z</time>
      </trkpt>
      <trkpt lat="43.60165" lon="2.79934">
        <ele>790</ele>
        <time>2013-06-15T17:12:54Z</time>
      </trkpt>
      <trkpt lat="43.60175" lon="2.79929">
        <ele>789</ele>
        <time>2013-06-15T17:12:58Z</time>
      </trkpt>
      <trkpt lat="43.60184" lon="2.79927">
        <ele>788</ele>
        <time>2013-06-15T17:13:02Z</time>
      </trkpt>
      <trkpt lat="43.60194" lon="2.79924">
        <ele>787</ele>
        <time>2013-06-15T17:13:06Z</time>
      </trkpt>
      <trkpt lat="43.60203" lon="2.79921">
        <ele>786</ele>
        <time>2013-06-15T17:13:10Z</time>
      </trkpt>
      <trkpt lat="43.60212" lon="2.79922">
        <ele>792</ele>
        <time>2013-06-15T17:13:28Z</time>
      </trkpt>
      <trkpt lat="43.60219" lon="2.79922">
        <ele>792</ele>
        <time>2013-06-15T17:13:36Z</time>
      </trkpt>
      <trkpt lat="43.60227" lon="2.79926">
        <ele>790</ele>
        <time>2013-06-15T17:13:47Z</time>
      </trkpt>
      <trkpt lat="43.60235" lon="2.79928">
        <ele>793</ele>
        <time>2013-06-15T17:13:52Z</time>
      </trkpt>
      <trkpt lat="43.60244" lon="2.79924">
        <ele>795</ele>
        <time>2013-06-15T17:14:01Z</time>
      </trkpt>
      <trkpt lat="43.60252" lon="2.79921">
        <ele>796</ele>
        <time>2013-06-15T17:14:07Z</time>
      </trkpt>
      <trkpt lat="43.60261" lon="2.79918">
        <ele>797</ele>
        <time>2013-06-15T17:14:18Z</time>
      </trkpt>
      <trkpt lat="43.60263" lon="2.79922">
        <ele>798</ele>
        <time>2013-06-15T17:14:43Z</time>
      </trkpt>
      <trkpt lat="43.60275" lon="2.79918">
        <ele>798</ele>
        <time>2013-06-15T17:14:47Z</time>
      </trkpt>
      <trkpt lat="43.60283" lon="2.79917">
        <ele>796</ele>
        <time>2013-06-15T17:15:03Z</time>
      </trkpt>
      <trkpt lat="43.6029" lon="2.79914">
        <ele>794</ele>
        <time>2013-06-15T17:15:08Z</time>
      </trkpt>
      <trkpt lat="43.60306" lon="2.79918">
        <ele>789</ele>
        <time>2013-06-15T17:15:13Z</time>
      </trkpt>
      <trkpt lat="43.60318" lon="2.79915">
        <ele>787</ele>
        <time>2013-06-15T17:15:18Z</time>
      </trkpt>
      <trkpt lat="43.60321" lon="2.79913">
        <ele>788</ele>
        <time>2013-06-15T17:15:24Z</time>
      </trkpt>
      <trkpt lat="43.60321" lon="2.79913">
        <ele>788</ele>
        <time>2013-06-15T17:15:24Z</time>
      </trkpt>
    </trkseg>
  </trk>
</gpx>